Time;durP1;ratioP1;P1;durP2;ratioP2;P2;SDS_P1;SDS_P2;PMS_P1;PMS_P2;Temp;Humidity;BMP_temperature;BMP_pressure;BME280_temperature;BME280_humidity;BME280_pressure;Samples;Min_cycle;Max_cycle;Signal;HPM_P1;HPM_P2
2023/01/09 00:00:48;;;;;;;2.90;2.60;;;7.60;99.90;;;;;;5139915;27;20461;-62
2023/01/09 00:03:15;;;;;;;3.00;2.70;;;7.60;99.90;;;;;;5140641;27;20472;-62
2023/01/09 00:05:42;;;;;;;3.40;2.37;;;7.60;99.90;;;;;;5140788;27;20865;-61
2023/01/09 00:08:09;;;;;;;5.80;2.20;;;7.50;99.90;;;;;;5140822;27;20924;-61
2023/01/09 00:10:36;;;;;;;3.30;1.93;;;7.40;3.70;;;;;;5140500;27;20545;-64
2023/01/09 00:13:03;;;;;;;2.50;1.70;;;7.30;1.00;;;;;;5139423;27;20867;-63
2023/01/09 00:15:31;;;;;;;3.47;1.53;;;7.30;24.90;;;;;;5139634;27;20463;-62
2023/01/09 00:17:59;;;;;;;4.10;1.50;;;7.20;1.00;;;;;;5140039;27;20445;-62
2023/01/09 00:20:26;;;;;;;2.63;1.47;;;7.20;1.00;;;;;;5140126;27;20750;-62
2023/01/09 00:22:53;;;;;;;2.47;1.40;;;7.20;1.00;;;;;;5140065;27;20462;-62
2023/01/09 00:25:21;;;;;;;2.00;1.40;;;7.10;99.90;;;;;;5140106;27;20437;-62
2023/01/09 00:27:48;;;;;;;2.30;1.80;;;7.00;1.00;;;;;;5138688;27;20466;-62
2023/01/09 00:30:16;;;;;;;3.70;1.57;;;7.00;1.00;;;;;;5139102;27;20486;-63
2023/01/09 00:32:43;;;;;;;3.13;1.90;;;7.00;1.00;;;;;;5139485;27;20952;-62
2023/01/09 00:35:16;;;;;;;2.03;1.43;;;7.00;92.90;;;;;;5139724;27;20458;-63
2023/01/09 00:37:44;;;;;;;2.40;1.73;;;7.00;83.70;;;;;;5139721;27;20462;-62
2023/01/09 00:40:13;;;;;;;3.07;1.90;;;7.00;67.00;;;;;;5139434;27;20437;-63
2023/01/09 00:42:41;;;;;;;2.70;2.00;;;7.00;99.90;;;;;;5139399;27;20462;-62
2023/01/09 00:45:11;;;;;;;2.00;1.43;;;7.00;1.00;;;;;;5139401;27;20871;-63
2023/01/09 00:47:42;;;;;;;3.10;1.47;;;6.90;1.00;;;;;;5139626;27;20465;-61
2023/01/09 00:50:18;;;;;;;1.90;1.30;;;6.90;10.70;;;;;;5139016;27;20882;-63
2023/01/09 00:52:46;;;;;;;2.30;1.50;;;6.90;99.90;;;;;;5140017;27;20486;-61
2023/01/09 00:55:17;;;;;;;1.97;1.37;;;6.90;99.90;;;;;;5139543;27;20465;-63
2023/01/09 00:57:44;;;;;;;3.20;1.40;;;6.90;99.90;;;;;;5139520;27;20454;-63
2023/01/09 01:00:13;;;;;;;2.30;1.70;;;6.90;99.90;;;;;;5139056;27;20462;-63
2023/01/09 01:02:40;;;;;;;2.10;1.50;;;6.80;99.90;;;;;;5139065;27;20469;-63
2023/01/09 01:07:54;;;;;;;2.87;1.63;;;6.80;99.90;;;;;;5138981;27;20707;-63
2023/01/09 01:10:27;;;;;;;2.17;1.33;;;6.80;99.90;;;;;;5138699;27;20463;-64
2023/01/09 01:12:57;;;;;;;2.20;1.50;;;6.80;99.90;;;;;;5138728;27;20494;-63
2023/01/09 01:15:28;;;;;;;2.10;1.50;;;6.80;99.90;;;;;;5138965;27;20751;-63
2023/01/09 01:17:55;;;;;;;2.10;1.50;;;6.70;99.90;;;;;;5139229;27;20459;-64
2023/01/09 01:20:22;;;;;;;1.90;1.17;;;6.70;99.90;;;;;;5139162;27;20458;-64
2023/01/09 01:22:51;;;;;;;2.00;1.60;;;6.60;99.90;;;;;;5138888;27;20458;-64
2023/01/09 01:25:19;;;;;;;2.30;1.50;;;6.60;99.90;;;;;;5138393;27;20433;-64
2023/01/09 01:27:46;;;;;;;2.10;1.50;;;6.60;99.90;;;;;;5139248;27;20454;-65
2023/01/09 01:30:17;;;;;;;2.37;1.70;;;6.60;99.90;;;;;;5137319;28;20490;-65
2023/01/09 01:32:44;;;;;;;2.17;1.60;;;6.60;99.90;;;;;;5138250;27;20486;-65
2023/01/09 01:35:15;;;;;;;2.10;1.43;;;6.60;99.90;;;;;;5138184;28;20463;-65
2023/01/09 01:37:42;;;;;;;2.70;1.50;;;6.50;99.90;;;;;;5138450;28;20450;-65
2023/01/09 01:40:11;;;;;;;2.20;1.83;;;6.60;99.90;;;;;;5138865;27;20801;-64
2023/01/09 01:42:46;;;;;;;2.50;1.43;;;6.50;99.90;;;;;;5138338;27;20429;-65
2023/01/09 01:45:15;;;;;;;1.90;1.27;;;6.50;99.90;;;;;;5138536;28;20437;-64
2023/01/09 01:47:51;;;;;;;2.13;1.70;;;6.60;99.90;;;;;;5138257;28;20466;-65
2023/01/09 01:50:25;;;;;;;2.10;1.50;;;6.60;13.90;;;;;;5138452;28;20863;-64
2023/01/09 01:53:00;;;;;;;4.53;1.60;;;6.60;1.00;;;;;;5137930;28;20509;-66
2023/01/09 01:55:27;;;;;;;2.20;1.63;;;6.60;1.00;;;;;;5137928;28;20466;-66
2023/01/09 01:58:01;;;;;;;2.10;1.50;;;6.50;1.00;;;;;;5137982;28;20458;-65
2023/01/09 02:00:33;;;;;;;2.43;1.57;;;6.50;1.00;;;;;;5138131;28;20466;-64
2023/01/09 02:03:02;;;;;;;2.50;1.60;;;6.40;1.00;;;;;;5137917;28;20434;-64
2023/01/09 02:05:29;;;;;;;2.43;1.60;;;6.40;31.50;;;;;;5137976;28;20466;-64
2023/01/09 02:07:56;;;;;;;2.30;1.77;;;6.40;82.40;;;;;;5138379;28;20458;-65
2023/01/09 02:10:24;;;;;;;2.10;1.60;;;6.50;99.90;;;;;;5138312;28;20561;-64
2023/01/09 02:12:52;;;;;;;2.43;1.53;;;6.50;99.90;;;;;;5137710;27;20468;-66
2023/01/09 02:15:21;;;;;;;2.40;2.10;;;6.50;99.90;;;;;;5138063;28;20476;-65
2023/01/09 02:18:27;;;;;;;2.20;1.50;;;6.50;99.90;;;;;;5137867;28;20498;-65
2023/01/09 02:20:59;;;;;;;4.03;1.70;;;6.50;99.90;;;;;;5137465;28;20945;-66
2023/01/09 02:24:05;;;;;;;3.50;2.20;;;6.50;99.90;;;;;;5138133;28;20724;-66
2023/01/09 02:27:07;;;;;;;3.67;2.00;;;6.60;99.90;;;;;;5138084;27;20465;-66
2023/01/09 02:30:10;;;;;;;3.60;2.50;;;6.60;82.80;;;;;;5122261;27;20468;-65
2023/01/09 02:32:59;;;;;;;2.60;2.30;;;6.60;26.20;;;;;;5137887;28;20457;-66
2023/01/09 02:36:04;;;;;;;2.67;2.23;;;6.60;1.00;;;;;;5137807;28;20867;-66
2023/01/09 02:38:43;;;;;;;4.17;2.10;;;6.60;1.00;;;;;;5141285;27;20434;-66
2023/01/09 02:41:16;;;;;;;3.17;2.40;;;6.60;1.00;;;;;;5141402;27;20433;-66
2023/01/09 02:43:43;;;;;;;4.13;2.60;;;6.60;1.00;;;;;;5141343;27;20554;-66
2023/01/09 02:46:19;;;;;;;3.07;2.03;;;6.70;99.90;;;;;;5141490;27;20913;-66
2023/01/09 02:48:52;;;;;;;4.00;1.97;;;6.70;93.50;;;;;;5141450;27;20894;-66
2023/01/09 02:51:31;;;;;;;3.53;2.20;;;6.70;1.00;;;;;;5140838;27;20433;-66
2023/01/09 02:54:08;;;;;;;3.53;2.60;;;6.70;1.00;;;;;;5141205;27;20934;-66
2023/01/09 02:57:08;;;;;;;4.53;2.80;;;6.70;1.00;;;;;;5141029;27;20561;-66
2023/01/09 02:59:45;;;;;;;5.97;3.10;;;6.80;45.10;;;;;;5096361;27;20462;-66
2023/01/09 03:02:33;;;;;;;3.77;2.70;;;6.70;99.90;;;;;;5140948;27;20460;-66
2023/01/09 03:05:09;;;;;;;4.33;3.00;;;6.70;99.90;;;;;;5141051;27;20903;-66
2023/01/09 03:07:41;;;;;;;5.00;3.30;;;6.70;99.90;;;;;;5141081;27;20458;-66
2023/01/09 03:10:14;;;;;;;3.40;2.60;;;6.70;70.40;;;;;;5140577;27;20545;-66
2023/01/09 03:12:43;;;;;;;3.10;2.40;;;6.70;1.00;;;;;;5141063;27;20458;-65
2023/01/09 03:15:13;;;;;;;4.80;2.87;;;6.70;99.90;;;;;;5140867;27;20485;-66
2023/01/09 03:17:45;;;;;;;3.60;2.93;;;6.70;1.00;;;;;;5140900;27;20454;-66
2023/01/09 03:20:19;;;;;;;4.07;3.10;;;6.80;99.90;;;;;;5140723;27;20490;-66
2023/01/09 03:22:53;;;;;;;3.93;3.27;;;6.70;1.00;;;;;;5141149;27;20462;-66
2023/01/09 03:25:20;;;;;;;4.50;3.23;;;6.80;1.00;;;;;;5140765;27;20879;-65
2023/01/09 03:27:48;;;;;;;5.90;4.00;;;6.70;1.00;;;;;;5140016;27;20461;-66
2023/01/09 03:30:16;;;;;;;6.13;4.50;;;6.70;99.90;;;;;;5139344;27;20487;-66
2023/01/09 03:32:43;;;;;;;5.63;4.80;;;6.70;99.90;;;;;;5140389;27;20742;-64
2023/01/09 03:35:10;;;;;;;4.20;3.77;;;6.70;1.00;;;;;;5140427;27;20557;-65
2023/01/09 03:37:44;;;;;;;7.20;3.57;;;6.70;1.00;;;;;;5140344;27;20851;-65
2023/01/09 03:40:12;;;;;;;6.50;3.60;;;6.70;1.00;;;;;;5140588;27;20459;-65
2023/01/09 03:42:39;;;;;;;6.13;3.20;;;6.70;99.90;;;;;;5140381;27;20875;-65
2023/01/09 03:45:07;;;;;;;4.70;4.03;;;6.70;99.90;;;;;;5140396;27;20940;-65
2023/01/09 03:47:34;;;;;;;4.30;3.20;;;6.60;99.90;;;;;;5140351;27;20459;-64
2023/01/09 03:50:04;;;;;;;11.53;3.90;;;6.60;1.00;;;;;;5140661;27;20532;-66
2023/01/09 03:52:31;;;;;;;4.37;3.57;;;6.70;1.00;;;;;;5139904;27;20440;-64
2023/01/09 03:55:00;;;;;;;4.73;4.13;;;6.60;99.90;;;;;;5140334;27;20486;-64
2023/01/09 03:57:27;;;;;;;5.40;3.87;;;6.60;99.90;;;;;;5140392;27;20466;-65
2023/01/09 03:59:54;;;;;;;4.83;3.53;;;6.60;99.90;;;;;;5139885;27;20462;-65
2023/01/09 04:02:21;;;;;;;4.93;4.00;;;6.60;99.90;;;;;;5140179;27;20440;-65
2023/01/09 04:04:51;;;;;;;4.77;3.27;;;6.60;99.90;;;;;;5140089;27;20433;-65
2023/01/09 04:07:18;;;;;;;4.40;3.40;;;6.60;95.30;;;;;;5139913;27;20465;-65
2023/01/09 04:09:45;;;;;;;4.40;3.03;;;6.60;1.00;;;;;;5139929;27;20472;-64
2023/01/09 04:12:13;;;;;;;4.27;3.03;;;6.60;1.00;;;;;;5139822;27;20850;-65
2023/01/09 04:14:43;;;;;;;6.43;2.90;;;6.60;1.00;;;;;;5139731;27;20505;-64
2023/01/09 04:17:10;;;;;;;4.90;3.03;;;6.50;1.00;;;;;;5140187;27;20725;-65
2023/01/09 04:19:37;;;;;;;3.20;2.60;;;6.50;1.00;;;;;;5139715;27;20465;-65
2023/01/09 04:22:04;;;;;;;3.30;2.80;;;6.50;1.00;;;;;;5139206;27;20754;-65
2023/01/09 04:24:32;;;;;;;7.20;3.07;;;6.40;99.90;;;;;;5139274;27;20447;-66
2023/01/09 04:26:59;;;;;;;3.23;2.60;;;6.40;99.90;;;;;;5139465;27;20466;-67
2023/01/09 04:29:30;;;;;;;8.50;2.77;;;6.40;99.90;;;;;;5137917;27;20638;-66
2023/01/09 04:31:57;;;;;;;6.77;3.27;;;6.40;99.90;;;;;;5138482;27;20458;-65
2023/01/09 04:34:27;;;;;;;5.60;3.07;;;6.30;99.90;;;;;;5139315;27;20475;-65
2023/01/09 04:36:56;;;;;;;5.83;3.30;;;6.20;99.90;;;;;;5139343;27;20481;-66
2023/01/09 04:39:23;;;;;;;11.00;3.57;;;6.20;99.90;;;;;;5138770;27;20892;-65
2023/01/09 04:41:50;;;;;;;4.67;3.20;;;6.10;1.00;;;;;;5139391;27;20436;-65
2023/01/09 04:44:18;;;;;;;4.70;3.47;;;6.10;1.00;;;;;;5138877;27;20489;-65
2023/01/09 04:46:47;;;;;;;5.20;3.50;;;6.00;1.00;;;;;;5138849;27;20441;-65
2023/01/09 04:49:15;;;;;;;4.90;3.13;;;5.90;70.50;;;;;;5139095;27;20768;-65
2023/01/09 04:51:42;;;;;;;5.80;3.60;;;5.90;99.90;;;;;;5139427;27;20580;-65
2023/01/09 04:54:09;;;;;;;4.87;3.20;;;5.80;99.90;;;;;;5138855;27;20469;-65
2023/01/09 04:56:37;;;;;;;5.00;2.63;;;5.80;1.00;;;;;;5139110;27;20759;-65
2023/01/09 04:59:05;;;;;;;5.70;2.63;;;5.70;1.00;;;;;;5138853;27;20502;-65
2023/01/09 05:01:33;;;;;;;4.70;1.70;;;5.70;99.90;;;;;;5138976;27;20913;-65
2023/01/09 05:04:02;;;;;;;5.80;2.50;;;5.60;99.90;;;;;;5138202;27;20459;-65
2023/01/09 05:06:29;;;;;;;5.23;2.10;;;5.60;99.90;;;;;;5138019;27;20831;-65
2023/01/09 05:08:56;;;;;;;5.73;2.53;;;5.50;99.90;;;;;;5139065;27;20850;-65
2023/01/09 05:11:24;;;;;;;3.33;2.23;;;5.50;1.00;;;;;;5139367;27;20459;-64
2023/01/09 05:13:51;;;;;;;5.13;2.17;;;5.50;1.00;;;;;;5138897;27;20486;-66
2023/01/09 05:16:18;;;;;;;4.67;2.07;;;5.50;99.90;;;;;;5139008;27;20886;-66
2023/01/09 05:18:47;;;;;;;4.43;2.17;;;5.50;99.90;;;;;;5138738;27;20508;-64
2023/01/09 05:21:16;;;;;;;2.80;1.63;;;5.40;99.90;;;;;;5138764;27;20469;-65
2023/01/09 05:23:43;;;;;;;3.67;2.13;;;5.40;99.90;;;;;;5139355;27;20875;-64
2023/01/09 05:26:11;;;;;;;6.57;2.20;;;5.50;99.90;;;;;;5139380;27;20454;-65
2023/01/09 05:28:38;;;;;;;6.63;2.17;;;5.50;99.90;;;;;;5138626;27;20433;-64
2023/01/09 05:31:05;;;;;;;5.90;2.50;;;5.60;1.00;;;;;;5138585;27;20465;-65
2023/01/09 05:33:32;;;;;;;4.80;1.80;;;5.60;1.00;;;;;;5139058;28;20755;-64
2023/01/09 05:35:59;;;;;;;11.13;2.80;;;5.60;99.90;;;;;;5139298;27;20746;-64
2023/01/09 05:38:28;;;;;;;7.27;2.30;;;5.60;99.90;;;;;;5138306;28;20458;-64
2023/01/09 05:40:55;;;;;;;3.60;2.00;;;5.60;99.90;;;;;;5138815;28;20462;-64
2023/01/09 05:43:22;;;;;;;3.33;1.80;;;5.70;21.70;;;;;;5138554;28;20899;-65
2023/01/09 05:45:49;;;;;;;7.07;2.17;;;5.70;5.60;;;;;;5138909;27;20750;-64
2023/01/09 05:48:19;;;;;;;6.83;2.17;;;5.70;1.00;;;;;;5138698;28;20437;-64
2023/01/09 05:50:46;;;;;;;5.10;1.90;;;5.70;1.00;;;;;;5137497;28;20858;-64
2023/01/09 05:53:13;;;;;;;8.07;2.60;;;5.80;1.00;;;;;;5137697;28;20437;-64
2023/01/09 05:55:42;;;;;;;6.73;2.67;;;5.80;1.00;;;;;;5136869;28;20461;-64
2023/01/09 05:58:09;;;;;;;4.10;1.50;;;5.80;1.00;;;;;;5137163;28;20535;-65
2023/01/09 06:00:36;;;;;;;5.23;2.03;;;5.80;99.90;;;;;;5137219;28;20461;-65
2023/01/09 06:03:03;;;;;;;4.10;1.90;;;5.80;99.90;;;;;;5137869;28;20910;-64
2023/01/09 06:05:30;;;;;;;4.03;1.70;;;5.80;99.90;;;;;;5138127;28;20549;-65
2023/01/09 06:07:57;;;;;;;4.40;1.60;;;5.80;99.90;;;;;;5137601;28;20433;-65
2023/01/09 06:10:24;;;;;;;5.80;1.67;;;5.80;99.90;;;;;;5136873;27;20459;-65
2023/01/09 06:12:53;;;;;;;2.90;1.60;;;5.90;99.90;;;;;;5138453;27;20549;-65
2023/01/09 06:15:20;;;;;;;3.97;2.03;;;5.80;99.90;;;;;;5140136;27;20780;-65
2023/01/09 06:17:48;;;;;;;4.67;1.80;;;5.90;99.90;;;;;;5140451;27;20466;-65
2023/01/09 06:20:15;;;;;;;3.40;2.10;;;5.90;99.90;;;;;;5138231;27;20462;-65
2023/01/09 06:22:43;;;;;;;5.87;2.17;;;5.80;99.90;;;;;;5119627;27;20450;-65
2023/01/09 06:25:10;;;;;;;11.93;3.30;;;5.80;99.90;;;;;;5119309;28;20430;-66
2023/01/09 06:27:37;;;;;;;8.27;5.20;;;5.80;99.90;;;;;;5129376;27;20465;-65
2023/01/09 06:30:08;;;;;;;5.17;4.30;;;5.80;1.00;;;;;;5139311;27;20486;-65
2023/01/09 06:32:35;;;;;;;9.60;3.83;;;5.70;1.00;;;;;;5141075;27;20433;-65
2023/01/09 06:35:02;;;;;;;7.13;3.30;;;5.70;23.40;;;;;;5128890;27;20487;-66
2023/01/09 06:37:30;;;;;;;9.03;2.93;;;5.60;99.90;;;;;;5119093;28;20563;-66
2023/01/09 06:39:57;;;;;;;4.40;2.00;;;5.60;1.00;;;;;;5119466;28;20463;-65
2023/01/09 06:42:24;;;;;;;4.00;1.97;;;5.60;99.90;;;;;;5119257;28;20482;-64
2023/01/09 06:44:51;;;;;;;6.33;2.27;;;5.60;1.00;;;;;;5120126;28;20508;-63
2023/01/09 06:47:19;;;;;;;5.00;2.47;;;5.60;1.00;;;;;;5120526;28;20463;-64
2023/01/09 06:49:46;;;;;;;5.80;2.57;;;5.60;17.30;;;;;;5120474;28;20463;-64
2023/01/09 06:52:13;;;;;;;5.63;2.10;;;5.50;1.00;;;;;;5121050;28;20466;-64
2023/01/09 06:54:41;;;;;;;5.17;1.80;;;5.50;99.90;;;;;;5120783;28;20495;-64
2023/01/09 06:57:09;;;;;;;4.43;2.27;;;5.50;99.90;;;;;;5120447;28;20459;-64
2023/01/09 06:59:36;;;;;;;3.83;1.77;;;5.50;99.90;;;;;;5121041;28;20884;-63
2023/01/09 07:02:03;;;;;;;5.07;2.50;;;5.50;12.90;;;;;;5121264;28;20468;-63
2023/01/09 07:04:31;;;;;;;8.90;2.20;;;5.50;99.90;;;;;;5121570;28;20456;-63
2023/01/09 07:06:58;;;;;;;4.10;2.10;;;5.50;31.70;;;;;;5121083;28;20468;-62
2023/01/09 07:09:26;;;;;;;5.03;2.53;;;5.50;1.00;;;;;;5120340;28;20434;-63
2023/01/09 07:11:53;;;;;;;4.60;1.90;;;5.50;1.00;;;;;;5120288;28;20455;-65
2023/01/09 07:14:20;;;;;;;6.53;2.20;;;5.50;1.00;;;;;;5120537;28;20487;-64
2023/01/09 07:16:47;;;;;;;14.20;2.70;;;5.50;99.90;;;;;;5119958;28;20459;-62
2023/01/09 07:19:14;;;;;;;4.30;2.10;;;5.50;1.00;;;;;;5120038;28;20460;-64
2023/01/09 07:21:42;;;;;;;9.03;2.03;;;5.50;1.00;;;;;;5120342;28;20434;-63
2023/01/09 07:24:09;;;;;;;6.37;2.13;;;5.50;1.00;;;;;;5119643;28;20463;-63
2023/01/09 07:26:36;;;;;;;7.40;2.87;;;5.50;99.90;;;;;;5120220;28;20463;-63
2023/01/09 07:29:04;;;;;;;4.50;2.17;;;5.50;99.80;;;;;;5117813;28;20479;-63
2023/01/09 07:31:31;;;;;;;4.73;2.70;;;5.50;99.90;;;;;;5119385;28;20459;-63
2023/01/09 07:33:58;;;;;;;3.63;2.53;;;5.50;1.00;;;;;;5119638;28;20463;-63
2023/01/09 07:36:25;;;;;;;16.03;3.13;;;5.60;99.90;;;;;;5119916;28;20463;-63
2023/01/09 07:38:53;;;;;;;3.93;2.43;;;5.60;1.00;;;;;;5134389;27;20463;-63
2023/01/09 07:41:20;;;;;;;3.50;2.20;;;5.70;1.00;;;;;;5139968;27;20467;-62
2023/01/09 07:43:47;;;;;;;4.37;2.13;;;5.70;99.90;;;;;;5139733;27;20459;-63
2023/01/09 07:46:14;;;;;;;4.00;2.33;;;5.70;99.90;;;;;;5140350;27;20455;-64
2023/01/09 07:48:41;;;;;;;7.37;2.10;;;5.70;1.00;;;;;;5139958;27;20459;-63
2023/01/09 07:51:09;;;;;;;5.13;3.13;;;5.70;99.90;;;;;;5138598;27;20462;-62
2023/01/09 07:53:36;;;;;;;5.50;2.23;;;5.80;1.00;;;;;;5139673;27;20545;-63
2023/01/09 07:56:05;;;;;;;4.97;2.30;;;5.80;1.00;;;;;;5139807;27;20497;-63
2023/01/09 07:58:32;;;;;;;5.80;2.67;;;5.70;60.70;;;;;;5140551;27;20462;-64
2023/01/09 08:00:59;;;;;;;4.60;2.17;;;5.70;99.90;;;;;;5139016;27;20466;-63
2023/01/09 08:03:26;;;;;;;4.57;2.20;;;5.80;1.00;;;;;;5140621;27;20435;-64
2023/01/09 08:05:53;;;;;;;3.77;1.80;;;5.80;31.00;;;;;;5140394;27;20842;-63
2023/01/09 08:08:21;;;;;;;3.50;2.07;;;5.80;99.90;;;;;;5139985;27;20849;-64
2023/01/09 08:10:48;;;;;;;3.17;2.40;;;5.80;1.00;;;;;;5139877;27;20465;-64
2023/01/09 08:13:17;;;;;;;5.17;2.70;;;5.80;1.00;;;;;;5139597;27;20557;-63
2023/01/09 08:15:44;;;;;;;6.40;2.30;;;5.80;1.00;;;;;;5139763;27;20490;-65
2023/01/09 08:18:11;;;;;;;3.93;2.20;;;5.80;1.00;;;;;;5139692;27;20481;-64
2023/01/09 08:20:38;;;;;;;2.87;2.07;;;5.80;1.00;;;;;;5139114;27;20454;-64
2023/01/09 08:23:05;;;;;;;6.23;2.10;;;5.90;99.90;;;;;;5139110;27;20462;-63
2023/01/09 08:25:32;;;;;;;6.20;2.20;;;5.90;1.00;;;;;;5127813;27;20481;-63
2023/01/09 08:27:59;;;;;;;4.47;2.33;;;5.90;1.00;;;;;;5137790;27;20458;-64
2023/01/09 08:30:28;;;;;;;4.33;2.00;;;5.90;1.00;;;;;;5136172;27;20481;-63
2023/01/09 08:32:55;;;;;;;5.30;2.43;;;5.90;1.00;;;;;;5133116;27;20470;-64
2023/01/09 08:35:22;;;;;;;3.60;2.17;;;5.90;99.90;;;;;;5136165;27;20491;-65
2023/01/09 08:37:50;;;;;;;3.93;2.13;;;5.90;32.20;;;;;;5136410;27;20462;-64
2023/01/09 08:40:17;;;;;;;4.33;2.10;;;5.90;99.90;;;;;;5120790;27;20479;-64
2023/01/09 08:48:18;;;;;;;3.63;2.30;;;6.00;1.00;;;;;;5101518;27;20457;-64
2023/01/09 08:50:46;;;;;;;4.53;2.10;;;6.00;1.00;;;;;;5135783;27;20459;-63
2023/01/09 08:53:14;;;;;;;5.17;2.30;;;6.00;1.00;;;;;;5135632;27;20550;-63
2023/01/09 08:55:41;;;;;;;9.23;2.87;;;6.00;99.90;;;;;;5135846;27;20482;-64
2023/01/09 08:58:08;;;;;;;5.50;1.90;;;6.10;1.00;;;;;;5136532;27;20756;-64
2023/01/09 09:00:36;;;;;;;8.33;2.27;;;6.00;1.00;;;;;;5135909;27;20883;-64
2023/01/09 09:03:04;;;;;;;3.70;1.90;;;6.10;99.90;;;;;;5135622;27;20875;-63
2023/01/09 09:05:33;;;;;;;4.97;2.00;;;6.20;99.90;;;;;;5135394;27;20453;-63
2023/01/09 09:08:01;;;;;;;6.40;2.23;;;6.20;99.90;;;;;;5135474;27;20467;-63
2023/01/09 09:10:29;;;;;;;6.53;2.00;;;6.20;32.10;;;;;;5136207;27;20462;-63
2023/01/09 09:12:58;;;;;;;5.13;2.10;;;6.20;99.90;;;;;;5136670;27;20458;-63
2023/01/09 09:15:26;;;;;;;4.73;1.93;;;6.30;1.00;;;;;;5137397;27;20494;-62
2023/01/09 09:17:56;;;;;;;4.07;2.00;;;6.40;1.00;;;;;;5138587;27;20454;-63
2023/01/09 09:20:26;;;;;;;3.53;2.00;;;6.40;99.90;;;;;;5138583;27;20458;-63
2023/01/09 09:22:53;;;;;;;4.57;2.57;;;6.50;1.00;;;;;;5138032;27;20458;-63
2023/01/09 09:25:20;;;;;;;4.13;2.20;;;6.50;99.90;;;;;;5138238;27;20459;-62
2023/01/09 09:27:48;;;;;;;5.00;2.40;;;6.60;99.90;;;;;;5137835;27;20470;-63
2023/01/09 09:30:17;;;;;;;4.37;1.97;;;6.60;99.90;;;;;;5137626;27;20891;-63
2023/01/09 09:32:44;;;;;;;6.77;1.83;;;6.60;99.90;;;;;;5138016;27;20455;-63
2023/01/09 09:35:13;;;;;;;5.17;1.87;;;6.50;99.90;;;;;;5137989;28;20776;-62
2023/01/09 09:37:40;;;;;;;5.80;2.57;;;6.40;99.90;;;;;;5138078;28;20437;-63
2023/01/09 09:40:16;;;;;;;4.10;2.30;;;6.50;99.90;;;;;;5138585;27;20752;-63
2023/01/09 09:46:03;;;;;;;4.13;2.43;;;6.40;99.90;;;;;;5139140;27;20441;-62
2023/01/09 09:48:37;;;;;;;4.57;2.57;;;6.40;99.90;;;;;;5142340;27;20449;-63
2023/01/09 09:51:30;;;;;;;4.50;2.30;;;6.50;99.90;;;;;;5141891;27;20503;-62
2023/01/09 09:54:00;;;;;;;8.47;2.80;;;6.40;99.90;;;;;;5141153;27;20470;-64
2023/01/09 09:56:30;;;;;;;3.03;2.10;;;6.50;99.90;;;;;;5142847;27;20509;-63
2023/01/09 09:59:02;;;;;;;3.43;2.20;;;6.60;99.90;;;;;;5142118;27;20463;-62
2023/01/09 10:01:38;;;;;;;7.20;3.03;;;6.60;99.90;;;;;;5142768;27;20462;-63
2023/01/09 10:04:10;;;;;;;3.70;2.50;;;6.60;99.90;;;;;;5142342;27;20458;-63
2023/01/09 10:06:43;;;;;;;4.80;2.40;;;6.70;99.90;;;;;;5142592;27;20451;-63
2023/01/09 10:09:20;;;;;;;3.40;2.30;;;6.70;99.90;;;;;;5142250;27;20465;-63
2023/01/09 10:11:55;;;;;;;3.40;2.23;;;6.70;99.90;;;;;;5142384;27;20458;-62
2023/01/09 10:14:23;;;;;;;5.67;2.00;;;6.60;99.90;;;;;;5141611;27;20744;-63
2023/01/09 10:17:08;;;;;;;5.93;2.97;;;6.60;99.90;;;;;;5141477;27;20465;-63
2023/01/09 10:19:50;;;;;;;4.10;2.30;;;6.70;99.90;;;;;;5141755;27;20454;-64
2023/01/09 10:22:29;;;;;;;3.13;2.20;;;6.60;99.90;;;;;;5142058;27;20477;-62
2023/01/09 10:25:20;;;;;;;4.20;2.50;;;6.60;99.90;;;;;;5141385;27;20465;-63
2023/01/09 10:28:02;;;;;;;5.63;2.30;;;6.70;99.90;;;;;;5141410;27;20823;-62
2023/01/09 10:30:37;;;;;;;4.80;3.00;;;6.70;99.90;;;;;;5140860;27;20930;-62
2023/01/09 10:33:17;;;;;;;7.37;3.53;;;6.60;99.90;;;;;;5141982;27;20454;-62
2023/01/09 10:36:26;;;;;;;8.37;3.00;;;6.60;99.90;;;;;;5141331;27;20785;-62
2023/01/09 10:38:58;;;;;;;8.00;3.70;;;6.70;99.90;;;;;;5141298;27;20887;-63
2023/01/09 10:41:30;;;;;;;6.27;2.97;;;6.70;99.90;;;;;;5141712;27;20544;-63
2023/01/09 10:44:02;;;;;;;5.63;3.20;;;6.70;99.90;;;;;;5137398;27;20473;-63
2023/01/09 10:46:35;;;;;;;7.10;2.97;;;6.80;99.90;;;;;;5128549;27;20887;-63
2023/01/09 10:49:04;;;;;;;5.53;2.80;;;6.80;99.90;;;;;;5129421;27;20497;-63
2023/01/09 10:51:37;;;;;;;3.47;3.17;;;6.90;1.00;;;;;;5126236;27;20878;-62
2023/01/09 10:54:13;;;;;;;3.90;3.03;;;6.90;1.00;;;;;;5138882;27;20496;-62
2023/01/09 10:56:44;;;;;;;4.40;2.80;;;6.90;1.00;;;;;;5139318;27;20490;-63
2023/01/09 10:59:11;;;;;;;5.50;3.00;;;7.00;1.00;;;;;;5138101;27;20473;-63
2023/01/09 11:01:41;;;;;;;8.90;3.20;;;6.90;1.00;;;;;;5139627;27;20440;-63
2023/01/09 11:04:21;;;;;;;4.30;3.23;;;6.90;1.00;;;;;;5139586;27;20499;-63
2023/01/09 11:06:52;;;;;;;3.60;2.60;;;7.00;1.00;;;;;;5137971;27;20462;-64
2023/01/09 11:09:21;;;;;;;5.93;3.00;;;6.90;1.00;;;;;;5137565;27;20459;-64
2023/01/09 11:11:48;;;;;;;5.87;2.60;;;7.00;1.00;;;;;;5137712;27;20481;-64
2023/01/09 11:14:17;;;;;;;5.03;2.60;;;7.00;1.00;;;;;;5137663;27;20489;-64
2023/01/09 11:16:55;;;;;;;5.70;4.03;;;7.00;1.00;;;;;;5137899;27;20501;-64
2023/01/09 11:19:23;;;;;;;4.40;2.80;;;7.00;1.00;;;;;;5137893;27;20454;-64
2023/01/09 11:21:50;;;;;;;22.13;13.17;;;7.00;1.00;;;;;;5138229;27;20920;-64
2023/01/09 11:24:28;;;;;;;10.50;5.63;;;7.10;99.90;;;;;;5138808;27;20459;-65
2023/01/09 11:27:25;;;;;;;6.20;4.00;;;7.20;99.90;;;;;;5138839;27;20541;-64
2023/01/09 11:30:14;;;;;;;5.37;3.07;;;7.20;99.90;;;;;;5139833;27;20517;-64
2023/01/09 11:32:41;;;;;;;7.90;3.73;;;7.20;99.90;;;;;;5140655;27;20825;-64
2023/01/09 11:35:18;;;;;;;14.20;8.30;;;7.20;99.90;;;;;;5139638;27;20441;-64
2023/01/09 11:37:47;;;;;;;5.90;3.53;;;7.20;99.90;;;;;;5139056;27;20455;-64
2023/01/09 11:40:21;;;;;;;8.57;5.60;;;7.20;33.60;;;;;;5132379;27;20458;-65
2023/01/09 11:43:14;;;;;;;8.37;5.87;;;7.20;1.00;;;;;;5134470;27;20724;-65
2023/01/09 11:45:51;;;;;;;8.97;3.30;;;7.30;1.00;;;;;;5139063;27;20455;-64
2023/01/09 11:48:39;;;;;;;5.77;4.60;;;7.40;1.00;;;;;;5139726;27;20878;-64
2023/01/09 11:51:19;;;;;;;8.70;7.47;;;7.50;1.00;;;;;;5132061;27;20465;-64
2023/01/09 11:54:24;;;;;;;5.03;2.33;;;7.60;1.00;;;;;;5139380;27;20429;-64
2023/01/09 11:56:53;;;;;;;6.13;3.47;;;7.60;1.00;;;;;;5136919;27;21016;-64
2023/01/09 11:59:23;;;;;;;5.30;3.03;;;7.60;1.00;;;;;;5137727;27;20437;-64
2023/01/09 12:02:22;;;;;;;5.07;3.03;;;7.60;1.00;;;;;;5131403;27;20463;-64
2023/01/09 12:04:54;;;;;;;4.47;3.20;;;7.70;1.00;;;;;;5136791;27;20879;-64
2023/01/09 12:07:42;;;;;;;7.83;3.20;;;7.70;1.00;;;;;;5128610;27;20452;-64
2023/01/09 12:10:25;;;;;;;4.13;2.90;;;7.80;1.00;;;;;;5127388;27;20848;-64
2023/01/09 12:13:00;;;;;;;7.80;4.67;;;7.70;1.00;;;;;;5134549;27;20465;-64
2023/01/09 12:15:32;;;;;;;7.37;5.27;;;7.70;1.00;;;;;;5133771;27;20440;-64
2023/01/09 12:18:22;;;;;;;7.90;3.63;;;7.60;1.00;;;;;;5118806;27;20478;-65
2023/01/09 12:21:12;;;;;;;5.10;3.40;;;7.60;1.00;;;;;;5136546;27;20801;-64
2023/01/09 12:23:53;;;;;;;6.00;3.20;;;7.60;1.00;;;;;;5135987;27;20461;-64
2023/01/09 12:26:24;;;;;;;6.33;3.23;;;7.60;1.00;;;;;;5135910;27;20871;-64
2023/01/09 12:29:17;;;;;;;5.40;3.70;;;7.50;1.00;;;;;;5135984;27;20784;-62
2023/01/09 12:32:09;;;;;;;7.67;2.67;;;7.40;1.00;;;;;;5135503;27;20454;-63
2023/01/09 12:34:51;;;;;;;5.50;3.90;;;7.40;1.00;;;;;;5122455;27;20477;-63
2023/01/09 12:37:37;;;;;;;6.43;3.00;;;7.40;1.00;;;;;;5134294;27;20942;-63
2023/01/09 12:40:20;;;;;;;3.60;2.67;;;7.40;1.00;;;;;;5134752;27;20448;-63
2023/01/09 12:42:53;;;;;;;5.50;3.60;;;7.40;1.00;;;;;;5135429;27;20873;-63
2023/01/09 12:45:37;;;;;;;5.70;2.93;;;7.40;1.00;;;;;;5135112;27;20817;-63
2023/01/09 12:48:14;;;;;;;4.93;2.53;;;7.40;1.00;;;;;;5136931;27;20433;-63
2023/01/09 12:51:06;;;;;;;8.93;2.70;;;7.40;1.00;;;;;;5138679;27;20461;-61
2023/01/09 12:53:38;;;;;;;5.50;2.60;;;7.40;1.00;;;;;;5138698;27;20470;-61
2023/01/09 12:56:08;;;;;;;7.53;2.90;;;7.30;1.00;;;;;;5138708;27;20509;-65
2023/01/09 12:58:43;;;;;;;3.63;2.40;;;7.20;1.00;;;;;;5137457;27;20458;-63
2023/01/09 13:01:17;;;;;;;6.07;4.80;;;7.20;1.00;;;;;;5137454;27;20462;-63
2023/01/09 13:03:50;;;;;;;5.67;3.37;;;7.20;1.00;;;;;;5137205;27;20454;-63
2023/01/09 13:06:21;;;;;;;4.67;2.67;;;7.20;1.00;;;;;;5137207;27;20859;-61
2023/01/09 13:08:52;;;;;;;8.67;2.73;;;7.50;1.00;;;;;;5137145;27;20450;-62
2023/01/09 13:11:26;;;;;;;4.43;2.73;;;7.40;1.00;;;;;;5137264;27;20528;-62
2023/01/09 13:13:58;;;;;;;6.13;2.50;;;7.40;1.00;;;;;;5137423;27;20463;-62
2023/01/09 13:16:32;;;;;;;6.83;2.40;;;7.40;1.00;;;;;;5138316;27;20461;-62
2023/01/09 13:19:04;;;;;;;6.50;2.67;;;7.30;1.00;;;;;;5137594;27;20455;-62
2023/01/09 13:21:31;;;;;;;5.30;2.60;;;7.30;1.00;;;;;;5133622;27;20493;-63
2023/01/09 13:24:07;;;;;;;4.27;2.70;;;7.30;1.00;;;;;;5131634;27;20466;-63
2023/01/09 13:26:40;;;;;;;5.30;2.70;;;7.30;1.00;;;;;;5136888;27;20765;-63
2023/01/09 13:29:12;;;;;;;4.53;2.50;;;7.20;1.00;;;;;;5135907;27;20461;-62
2023/01/09 13:32:00;;;;;;;6.07;3.30;;;7.20;1.00;;;;;;5140677;27;20871;-61
2023/01/09 13:34:30;;;;;;;4.87;3.10;;;7.20;1.00;;;;;;5147255;27;20480;-63
2023/01/09 13:36:58;;;;;;;6.10;3.80;;;7.20;1.00;;;;;;5145113;27;20943;-63